Time;durP1;ratioP1;P1;durP2;ratioP2;P2;SDS_P1;SDS_P2;PMS_P1;PMS_P2;Temp;Humidity;BMP_temperature;BMP_pressure;BME280_temperature;BME280_humidity;BME280_pressure;Samples;Min_cycle;Max_cycle;Signal;HPM_P1;HPM_P2
2021/10/16 00:01:46;;;;;;;1.42;1.30;;;;;;;;;;4975239;28;20204;-82
2021/10/16 00:04:14;;;;;;;1.67;1.58;;;;;;;;;;4975649;28;20196;-82
2021/10/16 00:06:41;;;;;;;1.23;1.20;;;;;;;;;;4975386;28;20208;-81
2021/10/16 00:09:08;;;;;;;1.40;1.30;;;;;;;;;;4975225;28;20232;-82
2021/10/16 00:11:36;;;;;;;1.20;1.10;;;;;;;;;;4975570;28;20203;-81
2021/10/16 00:14:05;;;;;;;1.20;1.20;;;;;;;;;;4975298;28;20196;-81
2021/10/16 00:16:32;;;;;;;1.52;1.42;;;;;;;;;;4975142;28;20192;-82
2021/10/16 00:19:00;;;;;;;2.00;1.60;;;;;;;;;;4975290;28;20606;-82
2021/10/16 00:21:27;;;;;;;1.55;1.45;;;;;;;;;;4976065;28;20196;-82
2021/10/16 00:23:55;;;;;;;0.90;0.90;;;;;;;;;;4977791;28;20208;-82
2021/10/16 00:26:22;;;;;;;1.00;1.00;;;;;;;;;;4976084;28;20211;-82
2021/10/16 00:28:49;;;;;;;1.10;1.10;;;;;;;;;;4980730;28;20313;-81
2021/10/16 00:31:18;;;;;;;1.45;1.35;;;;;;;;;;4981251;28;20207;-82
2021/10/16 00:33:46;;;;;;;1.88;1.70;;;;;;;;;;4981125;28;20185;-81
2021/10/16 00:36:14;;;;;;;3.47;2.70;;;;;;;;;;4981636;28;20234;-82
2021/10/16 00:38:41;;;;;;;2.83;2.53;;;;;;;;;;4979816;28;20230;-82
2021/10/16 00:41:11;;;;;;;2.38;1.88;;;;;;;;;;4979160;28;20191;-82
2021/10/16 00:43:39;;;;;;;1.80;1.58;;;;;;;;;;4978523;28;20267;-82
2021/10/16 00:46:06;;;;;;;1.67;1.25;;;;;;;;;;4979154;28;20189;-81
2021/10/16 00:48:35;;;;;;;2.80;2.50;;;;;;;;;;4979271;28;20228;-81
2021/10/16 00:51:03;;;;;;;2.10;1.58;;;;;;;;;;4978689;28;20211;-81
2021/10/16 00:53:30;;;;;;;2.05;1.85;;;;;;;;;;4969422;28;20291;-81
2021/10/16 00:55:59;;;;;;;4.40;2.33;;;;;;;;;;4979255;28;20228;-81
2021/10/16 00:58:27;;;;;;;2.45;2.03;;;;;;;;;;4978598;28;20699;-80
2021/10/16 01:00:54;;;;;;;1.60;1.50;;;;;;;;;;4978693;28;20791;-81
2021/10/16 01:03:22;;;;;;;1.88;1.77;;;;;;;;;;4978987;28;20193;-81
2021/10/16 01:05:51;;;;;;;1.67;1.58;;;;;;;;;;4978906;28;20224;-81
2021/10/16 01:08:18;;;;;;;1.48;1.30;;;;;;;;;;4978728;28;20221;-80
2021/10/16 01:10:46;;;;;;;1.98;1.83;;;;;;;;;;4977790;28;20208;-81
2021/10/16 01:13:14;;;;;;;1.52;1.42;;;;;;;;;;4978812;28;20193;-81
2021/10/16 01:15:41;;;;;;;1.45;1.33;;;;;;;;;;4977444;28;20224;-81
2021/10/16 01:18:09;;;;;;;2.47;1.98;;;;;;;;;;4978214;28;20221;-82
2021/10/16 01:20:40;;;;;;;2.78;1.92;;;;;;;;;;4972525;28;20196;-81
2021/10/16 01:23:09;;;;;;;1.60;1.50;;;;;;;;;;4958960;29;20209;-81
2021/10/16 01:25:37;;;;;;;3.80;2.28;;;;;;;;;;4958903;29;20684;-79
2021/10/16 01:28:05;;;;;;;1.30;1.20;;;;;;;;;;4959235;29;20229;-81
2021/10/16 01:30:33;;;;;;;1.27;1.00;;;;;;;;;;4958755;29;20719;-81
2021/10/16 01:33:01;;;;;;;1.45;1.35;;;;;;;;;;4959097;29;20246;-80
2021/10/16 01:35:28;;;;;;;0.80;0.80;;;;;;;;;;4958649;29;20236;-81
2021/10/16 01:37:56;;;;;;;1.15;1.13;;;;;;;;;;4958852;28;20225;-81
2021/10/16 01:40:25;;;;;;;1.52;1.52;;;;;;;;;;4957670;29;20186;-81
2021/10/16 01:42:53;;;;;;;1.00;1.00;;;;;;;;;;4958444;29;20189;-81
2021/10/16 01:45:22;;;;;;;1.00;1.00;;;;;;;;;;4958436;29;20211;-81
2021/10/16 01:47:51;;;;;;;0.90;0.90;;;;;;;;;;4959047;29;20249;-81
2021/10/16 01:50:20;;;;;;;1.10;1.00;;;;;;;;;;4958224;29;20197;-81
2021/10/16 01:52:47;;;;;;;1.45;1.35;;;;;;;;;;4958310;28;20260;-82
2021/10/16 01:55:15;;;;;;;1.20;1.10;;;;;;;;;;4958549;28;20229;-81
2021/10/16 01:57:44;;;;;;;1.00;1.00;;;;;;;;;;4958223;29;20231;-81
2021/10/16 02:00:13;;;;;;;0.90;0.90;;;;;;;;;;4958464;29;20201;-80
2021/10/16 02:02:41;;;;;;;0.90;0.90;;;;;;;;;;4958588;29;20222;-81
2021/10/16 02:05:09;;;;;;;1.27;1.27;;;;;;;;;;4971136;28;20211;-81
2021/10/16 02:07:36;;;;;;;1.23;1.20;;;;;;;;;;4977769;28;20224;-80
2021/10/16 02:10:04;;;;;;;1.17;1.17;;;;;;;;;;4978013;28;20188;-81
2021/10/16 02:12:32;;;;;;;1.25;1.23;;;;;;;;;;4977436;28;20204;-80
2021/10/16 02:15:01;;;;;;;1.00;1.00;;;;;;;;;;4977328;28;20204;-81
2021/10/16 02:17:28;;;;;;;1.10;1.10;;;;;;;;;;4977757;28;20243;-80
2021/10/16 02:19:56;;;;;;;0.80;0.80;;;;;;;;;;4977411;28;20192;-82
2021/10/16 02:22:23;;;;;;;1.15;1.15;;;;;;;;;;4977723;28;20199;-81
2021/10/16 02:24:51;;;;;;;0.80;0.80;;;;;;;;;;4977360;28;20262;-81
2021/10/16 02:27:18;;;;;;;1.00;1.00;;;;;;;;;;4977253;28;20212;-81
2021/10/16 02:29:45;;;;;;;1.02;1.00;;;;;;;;;;4977854;28;20189;-81
2021/10/16 02:32:14;;;;;;;0.90;0.90;;;;;;;;;;4975044;28;20200;-81
2021/10/16 02:34:42;;;;;;;0.80;0.80;;;;;;;;;;4957866;29;20606;-81
2021/10/16 02:37:10;;;;;;;0.90;0.90;;;;;;;;;;4957549;29;20217;-80
2021/10/16 02:39:38;;;;;;;0.90;0.90;;;;;;;;;;4957802;29;20235;-81
2021/10/16 02:42:05;;;;;;;0.90;0.90;;;;;;;;;;4959085;28;20202;-81
2021/10/16 02:44:33;;;;;;;0.77;0.77;;;;;;;;;;4976698;28;20292;-79
2021/10/16 02:47:00;;;;;;;0.88;0.88;;;;;;;;;;4976389;28;20188;-81
2021/10/16 02:49:29;;;;;;;0.80;0.80;;;;;;;;;;4976925;28;20224;-81
2021/10/16 02:51:57;;;;;;;0.80;0.80;;;;;;;;;;4983790;28;20242;-81
2021/10/16 02:54:24;;;;;;;0.80;0.80;;;;;;;;;;4957297;29;20193;-81
2021/10/16 02:56:51;;;;;;;1.23;1.10;;;;;;;;;;4956260;29;20726;-80
2021/10/16 02:59:19;;;;;;;0.95;0.95;;;;;;;;;;4955372;29;20227;-80
2021/10/16 03:01:47;;;;;;;1.10;1.10;;;;;;;;;;4956370;29;20212;-79
2021/10/16 03:04:14;;;;;;;0.80;0.80;;;;;;;;;;4955243;29;20192;-79
2021/10/16 03:06:43;;;;;;;1.00;1.00;;;;;;;;;;4955889;29;20216;-80
2021/10/16 03:09:16;;;;;;;1.00;1.00;;;;;;;;;;4973595;28;20224;-79
2021/10/16 03:11:44;;;;;;;0.98;0.98;;;;;;;;;;4975770;28;20189;-80
2021/10/16 03:14:11;;;;;;;0.95;0.95;;;;;;;;;;4992219;28;20206;-80
2021/10/16 03:16:39;;;;;;;1.10;1.08;;;;;;;;;;4994704;28;20212;-80
2021/10/16 03:19:06;;;;;;;1.00;1.00;;;;;;;;;;4994790;28;20227;-80
2021/10/16 03:21:34;;;;;;;1.00;1.00;;;;;;;;;;4985272;28;20232;-80
2021/10/16 03:24:03;;;;;;;0.80;0.80;;;;;;;;;;4975499;28;20195;-80
2021/10/16 03:26:30;;;;;;;1.05;1.05;;;;;;;;;;4973708;28;20855;-79
2021/10/16 03:28:58;;;;;;;1.00;1.00;;;;;;;;;;4974611;28;20241;-79
2021/10/16 03:31:25;;;;;;;1.55;1.45;;;;;;;;;;4974875;28;20205;-79
2021/10/16 03:33:52;;;;;;;1.05;1.05;;;;;;;;;;4975592;28;20569;-79
2021/10/16 03:36:20;;;;;;;1.10;1.10;;;;;;;;;;4974890;28;20224;-79
2021/10/16 03:38:47;;;;;;;1.02;1.02;;;;;;;;;;4974800;28;20235;-79
2021/10/16 03:41:16;;;;;;;1.35;1.27;;;;;;;;;;4980899;28;20199;-80
2021/10/16 03:43:43;;;;;;;1.00;1.00;;;;;;;;;;4994575;28;20184;-79
2021/10/16 03:46:11;;;;;;;1.00;1.00;;;;;;;;;;4994246;28;20203;-79
2021/10/16 03:48:38;;;;;;;0.93;0.93;;;;;;;;;;4994450;28;20228;-80
2021/10/16 03:51:06;;;;;;;1.10;1.10;;;;;;;;;;4994064;28;20184;-79
2021/10/16 03:53:33;;;;;;;1.23;1.23;;;;;;;;;;4994655;28;20192;-80
2021/10/16 03:56:00;;;;;;;1.42;1.40;;;;;;;;;;4994456;28;20187;-80
2021/10/16 03:58:29;;;;;;;0.70;0.70;;;;;;;;;;4993990;28;20223;-80
2021/10/16 04:01:00;;;;;;;1.40;1.30;;;;;;;;;;4994010;28;20212;-80
2021/10/16 04:03:28;;;;;;;1.10;1.10;;;;;;;;;;4994008;28;20188;-79
2021/10/16 04:05:55;;;;;;;0.68;0.68;;;;;;;;;;4994257;28;20208;-79
2021/10/16 04:08:23;;;;;;;0.70;0.70;;;;;;;;;;4993501;28;20224;-81
2021/10/16 04:10:50;;;;;;;0.80;0.80;;;;;;;;;;4993668;28;20188;-79
2021/10/16 04:13:18;;;;;;;0.70;0.70;;;;;;;;;;4993902;28;20187;-81
2021/10/16 04:15:47;;;;;;;0.70;0.70;;;;;;;;;;4988631;28;20184;-80
2021/10/16 04:18:14;;;;;;;1.00;1.00;;;;;;;;;;4973940;28;20236;-80
2021/10/16 04:20:42;;;;;;;0.70;0.70;;;;;;;;;;4973365;28;20285;-80
2021/10/16 04:23:09;;;;;;;0.60;0.60;;;;;;;;;;4974309;28;20197;-80
2021/10/16 04:25:37;;;;;;;0.70;0.70;;;;;;;;;;4973872;28;20670;-80
2021/10/16 04:28:05;;;;;;;0.80;0.80;;;;;;;;;;4973458;28;20220;-80
2021/10/16 04:30:32;;;;;;;0.90;0.90;;;;;;;;;;4973969;28;20215;-79
2021/10/16 04:33:01;;;;;;;0.90;0.90;;;;;;;;;;4973851;28;20196;-80
2021/10/16 04:35:28;;;;;;;0.80;0.80;;;;;;;;;;4974010;28;20643;-80
2021/10/16 04:37:56;;;;;;;0.95;0.95;;;;;;;;;;4974130;28;20224;-79
2021/10/16 04:40:26;;;;;;;0.90;0.90;;;;;;;;;;4954392;29;20211;-80
2021/10/16 04:42:54;;;;;;;1.10;1.10;;;;;;;;;;4961891;28;20200;-80
2021/10/16 04:45:23;;;;;;;1.00;1.00;;;;;;;;;;4979757;28;20188;-80
2021/10/16 04:47:50;;;;;;;1.00;1.00;;;;;;;;;;4974275;28;20630;-81
2021/10/16 04:50:19;;;;;;;1.38;1.35;;;;;;;;;;4974106;28;20200;-80
2021/10/16 04:52:46;;;;;;;1.00;1.00;;;;;;;;;;4991980;28;20238;-80
2021/10/16 04:55:14;;;;;;;1.00;1.00;;;;;;;;;;4993189;28;20203;-79
2021/10/16 04:57:41;;;;;;;1.05;1.02;;;;;;;;;;4993294;28;20319;-80
2021/10/16 05:00:10;;;;;;;0.90;0.90;;;;;;;;;;4993485;28;20214;-80
2021/10/16 05:02:38;;;;;;;0.82;0.82;;;;;;;;;;4992949;28;20199;-79
2021/10/16 05:05:06;;;;;;;0.70;0.70;;;;;;;;;;4954558;29;20201;-80
2021/10/16 05:07:36;;;;;;;0.90;0.90;;;;;;;;;;4957811;28;20220;-80
2021/10/16 05:10:04;;;;;;;0.80;0.80;;;;;;;;;;4974199;28;20207;-79
2021/10/16 05:12:31;;;;;;;1.27;1.17;;;;;;;;;;4973850;28;20197;-80
2021/10/16 05:14:59;;;;;;;1.98;1.77;;;;;;;;;;4976701;28;20205;-80
2021/10/16 05:17:27;;;;;;;1.35;1.25;;;;;;;;;;4977133;28;20228;-80
2021/10/16 05:19:54;;;;;;;1.17;1.13;;;;;;;;;;4977637;28;20215;-80
2021/10/16 05:22:22;;;;;;;1.10;1.10;;;;;;;;;;4977645;28;20213;-79
2021/10/16 05:24:50;;;;;;;0.60;0.60;;;;;;;;;;4976631;28;20200;-80
2021/10/16 05:27:18;;;;;;;0.90;0.90;;;;;;;;;;4976876;28;20211;-80
2021/10/16 05:29:45;;;;;;;0.70;0.70;;;;;;;;;;4984395;28;20203;-80
2021/10/16 05:32:13;;;;;;;1.08;1.08;;;;;;;;;;4996574;28;20211;-80
2021/10/16 05:34:40;;;;;;;1.27;1.25;;;;;;;;;;4997049;28;20192;-79
2021/10/16 05:37:08;;;;;;;0.98;0.98;;;;;;;;;;4996515;28;20188;-81
2021/10/16 05:39:36;;;;;;;1.00;1.00;;;;;;;;;;4996796;28;20199;-79
2021/10/16 05:42:05;;;;;;;1.17;1.17;;;;;;;;;;4996826;28;20206;-80
2021/10/16 05:44:32;;;;;;;0.90;0.90;;;;;;;;;;4995805;28;20200;-80
2021/10/16 05:47:00;;;;;;;1.00;1.00;;;;;;;;;;4981168;28;20199;-81
2021/10/16 05:49:27;;;;;;;1.00;1.00;;;;;;;;;;4976370;28;20227;-81
2021/10/16 05:51:55;;;;;;;0.95;0.95;;;;;;;;;;4970044;28;20237;-83
2021/10/16 05:54:22;;;;;;;0.95;0.95;;;;;;;;;;4957272;29;20209;-82
2021/10/16 05:56:49;;;;;;;0.90;0.90;;;;;;;;;;4956734;28;20205;-81
2021/10/16 05:59:18;;;;;;;0.90;0.90;;;;;;;;;;4956612;28;20236;-81
2021/10/16 06:01:46;;;;;;;0.93;0.80;;;;;;;;;;4956141;29;20228;-81
2021/10/16 06:04:13;;;;;;;0.93;0.93;;;;;;;;;;4957166;29;20188;-82
2021/10/16 06:06:40;;;;;;;1.08;1.08;;;;;;;;;;4957032;28;20215;-81
2021/10/16 06:09:08;;;;;;;1.02;1.02;;;;;;;;;;4956439;28;20244;-82
2021/10/16 06:11:35;;;;;;;0.70;0.70;;;;;;;;;;4956984;28;20198;-81
2021/10/16 06:14:03;;;;;;;0.57;0.57;;;;;;;;;;4956206;28;20208;-81
2021/10/16 06:16:32;;;;;;;0.80;0.80;;;;;;;;;;4956802;29;20186;-82
2021/10/16 06:19:03;;;;;;;0.90;0.90;;;;;;;;;;4956390;28;20240;-80
2021/10/16 06:21:30;;;;;;;0.70;0.70;;;;;;;;;;4957083;29;20229;-80
2021/10/16 06:23:58;;;;;;;0.80;0.80;;;;;;;;;;4961635;28;20203;-81
2021/10/16 06:26:26;;;;;;;1.25;0.90;;;;;;;;;;4973031;28;20212;-81
2021/10/16 06:28:53;;;;;;;0.90;0.90;;;;;;;;;;4975756;28;20216;-80
2021/10/16 06:31:20;;;;;;;0.80;0.80;;;;;;;;;;4975515;28;20211;-81
2021/10/16 06:33:49;;;;;;;0.68;0.68;;;;;;;;;;4975064;28;20212;-81
2021/10/16 06:36:16;;;;;;;1.00;1.00;;;;;;;;;;4975992;28;20699;-81
2021/10/16 06:38:44;;;;;;;1.00;1.00;;;;;;;;;;4975513;28;20232;-81
2021/10/16 06:41:11;;;;;;;0.80;0.80;;;;;;;;;;4975587;28;20208;-81
2021/10/16 06:43:38;;;;;;;0.80;0.80;;;;;;;;;;4975397;28;20206;-81
2021/10/16 06:46:06;;;;;;;1.00;1.00;;;;;;;;;;4974940;28;20209;-80
2021/10/16 06:48:33;;;;;;;0.90;0.90;;;;;;;;;;4964812;28;20700;-80
2021/10/16 06:51:02;;;;;;;1.08;1.00;;;;;;;;;;4956400;29;20545;-81
2021/10/16 06:53:30;;;;;;;0.90;0.90;;;;;;;;;;4960664;28;20598;-81
2021/10/16 06:55:57;;;;;;;0.90;0.90;;;;;;;;;;4955672;29;20200;-80
2021/10/16 06:58:25;;;;;;;1.50;1.50;;;;;;;;;;4955507;29;20240;-80
2021/10/16 07:00:52;;;;;;;1.67;1.58;;;;;;;;;;4956025;29;20197;-82
2021/10/16 07:03:20;;;;;;;1.10;1.10;;;;;;;;;;4955776;29;20192;-80
2021/10/16 07:05:47;;;;;;;1.00;1.00;;;;;;;;;;4956339;29;20189;-80
2021/10/16 07:08:16;;;;;;;0.80;0.80;;;;;;;;;;4955352;28;20257;-81
2021/10/16 07:10:44;;;;;;;1.42;1.33;;;;;;;;;;4955687;28;20204;-82
2021/10/16 07:13:11;;;;;;;1.00;1.00;;;;;;;;;;4955707;29;20208;-80
2021/10/16 07:15:42;;;;;;;1.20;1.20;;;;;;;;;;4955359;29;20251;-80
2021/10/16 07:18:09;;;;;;;1.48;1.38;;;;;;;;;;4954963;29;20236;-80
2021/10/16 07:20:38;;;;;;;1.02;1.02;;;;;;;;;;4955091;29;20281;-81
2021/10/16 07:23:07;;;;;;;1.02;1.02;;;;;;;;;;4954861;28;20670;-81
2021/10/16 07:25:35;;;;;;;0.70;0.70;;;;;;;;;;4955293;29;20200;-81
2021/10/16 07:28:03;;;;;;;0.90;0.90;;;;;;;;;;4953515;28;20595;-81
2021/10/16 07:30:31;;;;;;;0.80;0.80;;;;;;;;;;4954845;29;20196;-81
2021/10/16 07:32:58;;;;;;;1.13;1.13;;;;;;;;;;4955343;29;20205;-82
2021/10/16 07:35:25;;;;;;;1.15;1.15;;;;;;;;;;4954525;29;20274;-81
2021/10/16 07:37:53;;;;;;;1.20;1.20;;;;;;;;;;4954020;28;20229;-81
2021/10/16 07:40:20;;;;;;;1.10;1.10;;;;;;;;;;4955471;29;20555;-81
2021/10/16 07:42:49;;;;;;;0.85;0.85;;;;;;;;;;4968388;28;20300;-81
2021/10/16 07:45:17;;;;;;;1.10;1.10;;;;;;;;;;4969082;28;20288;-81
2021/10/16 07:47:45;;;;;;;1.83;1.73;;;;;;;;;;4936269;29;20222;-82
2021/10/16 07:50:12;;;;;;;1.00;1.00;;;;;;;;;;4936344;29;20190;-81
2021/10/16 07:52:39;;;;;;;1.35;1.25;;;;;;;;;;4935940;29;20234;-81
2021/10/16 07:55:07;;;;;;;1.42;1.33;;;;;;;;;;4936088;29;20209;-81
2021/10/16 07:57:36;;;;;;;1.40;1.30;;;;;;;;;;4936301;29;20316;-81
2021/10/16 08:00:08;;;;;;;1.27;1.27;;;;;;;;;;4935954;29;20216;-82
2021/10/16 08:02:36;;;;;;;1.23;1.13;;;;;;;;;;4935531;29;20533;-80
2021/10/16 08:05:03;;;;;;;1.08;1.08;;;;;;;;;;4935639;29;20186;-82
2021/10/16 08:07:31;;;;;;;1.10;1.10;;;;;;;;;;4956768;28;20220;-81
2021/10/16 08:09:58;;;;;;;0.90;0.90;;;;;;;;;;4954759;29;20189;-82
2021/10/16 08:12:26;;;;;;;1.35;1.30;;;;;;;;;;4954567;29;20182;-81
2021/10/16 08:14:55;;;;;;;1.63;1.52;;;;;;;;;;4955283;29;20216;-81
2021/10/16 08:17:23;;;;;;;1.20;1.20;;;;;;;;;;4954946;29;20659;-81
2021/10/16 08:19:51;;;;;;;2.17;1.60;;;;;;;;;;4956125;28;20220;-82
2021/10/16 08:22:18;;;;;;;1.15;1.15;;;;;;;;;;4955525;29;20200;-81
2021/10/16 08:24:46;;;;;;;1.20;1.20;;;;;;;;;;4955378;28;20211;-82
2021/10/16 08:27:14;;;;;;;1.00;1.00;;;;;;;;;;4969966;28;20204;-82
2021/10/16 08:29:42;;;;;;;1.58;1.48;;;;;;;;;;4965640;28;20687;-81
2021/10/16 08:32:09;;;;;;;1.40;1.30;;;;;;;;;;4955314;29;20256;-82
2021/10/16 08:34:38;;;;;;;1.50;1.40;;;;;;;;;;4954976;29;20196;-81
2021/10/16 08:37:06;;;;;;;1.70;1.60;;;;;;;;;;4955138;28;20192;-81
2021/10/16 08:39:34;;;;;;;1.45;1.38;;;;;;;;;;4953691;29;20212;-81
2021/10/16 08:42:01;;;;;;;1.20;1.20;;;;;;;;;;4954621;29;20200;-80
2021/10/16 08:44:29;;;;;;;1.95;1.85;;;;;;;;;;4954354;29;20657;-81
2021/10/16 08:46:58;;;;;;;2.05;1.95;;;;;;;;;;4953772;28;20201;-81
2021/10/16 08:49:32;;;;;;;2.40;2.20;;;;;;;;;;4958130;28;20279;-81
2021/10/16 08:52:01;;;;;;;1.70;1.60;;;;;;;;;;4957879;28;20620;-81
2021/10/16 08:54:30;;;;;;;1.60;1.50;;;;;;;;;;4958379;29;20207;-81
2021/10/16 08:56:57;;;;;;;1.25;1.20;;;;;;;;;;4958040;29;20185;-81
2021/10/16 08:59:25;;;;;;;1.70;1.60;;;;;;;;;;4957515;29;20590;-81
2021/10/16 09:01:57;;;;;;;1.65;1.55;;;;;;;;;;4957526;29;20575;-81
2021/10/16 09:04:25;;;;;;;1.05;1.05;;;;;;;;;;4959301;28;20205;-81
2021/10/16 09:06:53;;;;;;;1.30;1.20;;;;;;;;;;4958084;29;20277;-80
2021/10/16 09:09:25;;;;;;;1.35;1.33;;;;;;;;;;4956043;29;20228;-80
2021/10/16 09:11:55;;;;;;;1.35;1.25;;;;;;;;;;4958260;29;20198;-81
2021/10/16 09:14:24;;;;;;;0.98;0.98;;;;;;;;;;4957811;29;20614;-81
2021/10/16 09:16:54;;;;;;;1.50;1.40;;;;;;;;;;4958168;29;20671;-81
2021/10/16 09:19:24;;;;;;;1.05;1.05;;;;;;;;;;4958443;29;20231;-81
2021/10/16 09:21:54;;;;;;;1.00;1.00;;;;;;;;;;4958844;29;20212;-83
2021/10/16 09:24:26;;;;;;;1.20;1.15;;;;;;;;;;4960677;29;20276;-82
2021/10/16 09:26:57;;;;;;;1.10;1.10;;;;;;;;;;4960261;29;20664;-81
2021/10/16 09:29:28;;;;;;;1.05;1.05;;;;;;;;;;4960059;29;20217;-82
2021/10/16 09:31:57;;;;;;;1.40;1.30;;;;;;;;;;4959433;29;20272;-82
2021/10/16 09:34:27;;;;;;;1.58;1.48;;;;;;;;;;4960317;29;20204;-83
2021/10/16 09:37:04;;;;;;;1.50;1.40;;;;;;;;;;4959628;29;20199;-84
2021/10/16 09:39:34;;;;;;;1.42;1.42;;;;;;;;;;4958579;29;20220;-84
2021/10/16 09:42:02;;;;;;;1.40;1.30;;;;;;;;;;4958397;29;20193;-84
2021/10/16 09:44:31;;;;;;;1.70;1.60;;;;;;;;;;4958732;29;20205;-83
2021/10/16 09:47:15;;;;;;;1.60;1.50;;;;;;;;;;4959115;29;20193;-85
2021/10/16 09:49:45;;;;;;;1.77;1.67;;;;;;;;;;4951475;29;20248;-82
2021/10/16 09:52:14;;;;;;;1.80;1.70;;;;;;;;;;4958123;28;20240;-82
2021/10/16 09:54:45;;;;;;;2.20;2.10;;;;;;;;;;4958946;29;20288;-83
2021/10/16 09:57:15;;;;;;;1.80;1.70;;;;;;;;;;4959145;29;20215;-82
2021/10/16 09:59:44;;;;;;;1.60;1.50;;;;;;;;;;4958724;28;20193;-83
2021/10/16 10:02:12;;;;;;;1.42;1.33;;;;;;;;;;4959336;29;20201;-84
2021/10/16 10:04:42;;;;;;;1.50;1.42;;;;;;;;;;4957205;29;20574;-84
2021/10/16 10:07:11;;;;;;;1.80;1.70;;;;;;;;;;4959451;29;20196;-85
2021/10/16 10:09:41;;;;;;;3.10;2.80;;;;;;;;;;4959678;29;20236;-83
2021/10/16 10:12:12;;;;;;;1.80;1.70;;;;;;;;;;4959600;29;20201;-84
2021/10/16 10:14:41;;;;;;;2.13;1.98;;;;;;;;;;4959112;29;20194;-83
2021/10/16 10:17:10;;;;;;;2.00;1.90;;;;;;;;;;4959251;29;20203;-83
2021/10/16 10:19:39;;;;;;;2.45;2.25;;;;;;;;;;4959361;29;20201;-83
2021/10/16 10:22:12;;;;;;;2.72;2.53;;;;;;;;;;4959796;29;20205;-83
2021/10/16 10:24:42;;;;;;;1.92;1.83;;;;;;;;;;4959538;29;20185;-83
2021/10/16 10:27:12;;;;;;;1.85;1.75;;;;;;;;;;4957582;29;20182;-84
2021/10/16 10:29:42;;;;;;;2.00;1.90;;;;;;;;;;4957885;29;20555;-84
2021/10/16 10:32:19;;;;;;;1.65;1.55;;;;;;;;;;4958419;29;20232;-84
2021/10/16 10:34:56;;;;;;;3.15;2.85;;;;;;;;;;4958379;29;20252;-86
2021/10/16 10:37:31;;;;;;;2.80;2.63;;;;;;;;;;4956799;29;20189;-86
2021/10/16 10:40:00;;;;;;;1.70;1.60;;;;;;;;;;4959023;29;20197;-86
2021/10/16 10:42:56;;;;;;;1.70;1.60;;;;;;;;;;4958901;29;20195;-85
2021/10/16 10:45:39;;;;;;;1.85;1.75;;;;;;;;;;4958470;29;20261;-86
2021/10/16 10:48:11;;;;;;;6.35;2.80;;;;;;;;;;4957860;29;20641;-84
2021/10/16 10:51:02;;;;;;;2.30;2.20;;;;;;;;;;4957876;29;20285;-87
2021/10/16 10:53:39;;;;;;;2.67;2.47;;;;;;;;;;4958305;28;20256;-86
2021/10/16 10:56:15;;;;;;;3.00;2.80;;;;;;;;;;4957118;29;20201;-85
2021/10/16 10:59:06;;;;;;;2.55;2.35;;;;;;;;;;4957307;29;20315;-84
2021/10/16 11:01:59;;;;;;;3.55;3.22;;;;;;;;;;4957067;29;20304;-84
2021/10/16 11:04:44;;;;;;;3.42;2.95;;;;;;;;;;4957708;29;20189;-84
2021/10/16 11:07:15;;;;;;;3.22;2.50;;;;;;;;;;4957531;29;20189;-83
2021/10/16 11:09:43;;;;;;;4.07;2.55;;;;;;;;;;4957461;29;20751;-82
2021/10/16 11:12:14;;;;;;;3.17;2.90;;;;;;;;;;4957228;28;20212;-82
2021/10/16 11:14:44;;;;;;;2.53;2.33;;;;;;;;;;4958269;29;20248;-81
2021/10/16 11:17:14;;;;;;;3.53;3.22;;;;;;;;;;4956974;29;20200;-82
2021/10/16 11:19:50;;;;;;;3.45;3.15;;;;;;;;;;4957606;29;20196;-83
2021/10/16 11:22:18;;;;;;;3.72;3.30;;;;;;;;;;4956857;29;20759;-83
2021/10/16 11:24:45;;;;;;;2.80;2.60;;;;;;;;;;4957351;29;20197;-84
2021/10/16 11:27:13;;;;;;;4.78;3.03;;;;;;;;;;4957121;29;20193;-86
2021/10/16 11:29:43;;;;;;;3.42;3.13;;;;;;;;;;4955855;29;20197;-85
2021/10/16 11:32:20;;;;;;;3.58;3.28;;;;;;;;;;4955988;29;20198;-83
2021/10/16 11:35:02;;;;;;;5.07;4.45;;;;;;;;;;4955420;29;20201;-84
2021/10/16 11:37:45;;;;;;;4.18;3.00;;;;;;;;;;4955877;29;20229;-85
2021/10/16 11:40:17;;;;;;;3.50;3.20;;;;;;;;;;4958359;29;20193;-85
2021/10/16 11:42:47;;;;;;;3.80;3.38;;;;;;;;;;4957641;29;20215;-84
2021/10/16 11:45:19;;;;;;;2.95;2.72;;;;;;;;;;4958125;29;20827;-84
2021/10/16 11:47:52;;;;;;;2.80;2.60;;;;;;;;;;4943546;29;20263;-85
2021/10/16 11:50:22;;;;;;;2.70;2.50;;;;;;;;;;4958400;29;20585;-84
2021/10/16 11:52:53;;;;;;;2.17;1.98;;;;;;;;;;4957650;28;20251;-84
2021/10/16 11:55:23;;;;;;;4.05;2.97;;;;;;;;;;4958702;29;20189;-84
2021/10/16 11:57:51;;;;;;;2.67;2.47;;;;;;;;;;4956763;29;20228;-85
2021/10/16 12:00:32;;;;;;;2.97;2.30;;;;;;;;;;4957460;29;20194;-84
2021/10/16 12:03:00;;;;;;;4.20;3.80;;;;;;;;;;4956716;29;20719;-85
2021/10/16 12:05:28;;;;;;;3.90;2.85;;;;;;;;;;4956978;28;20189;-85
2021/10/16 12:07:57;;;;;;;3.35;2.97;;;;;;;;;;4956864;29;20232;-84
2021/10/16 12:10:34;;;;;;;2.40;2.20;;;;;;;;;;4954316;29;20255;-84
2021/10/16 12:13:06;;;;;;;2.47;2.20;;;;;;;;;;4956277;29;20184;-84
2021/10/16 12:15:52;;;;;;;2.97;2.35;;;;;;;;;;4954519;29;20197;-84
2021/10/16 12:18:23;;;;;;;2.55;2.35;;;;;;;;;;4954269;29;20707;-85
2021/10/16 12:20:57;;;;;;;2.03;1.92;;;;;;;;;;4956140;29;20188;-85
2021/10/16 12:23:41;;;;;;;3.13;2.88;;;;;;;;;;4955828;28;20203;-84
2021/10/16 12:26:21;;;;;;;3.13;2.88;;;;;;;;;;4960233;29;20656;-85
2021/10/16 12:28:49;;;;;;;4.93;4.40;;;;;;;;;;4960605;29;20220;-84
2021/10/16 12:31:19;;;;;;;6.25;3.20;;;;;;;;;;4960177;29;20201;-85
2021/10/16 12:34:06;;;;;;;3.20;2.90;;;;;;;;;;4958211;29;20196;-84
2021/10/16 12:36:38;;;;;;;2.45;2.00;;;;;;;;;;4961047;29;20229;-84
2021/10/16 12:39:08;;;;;;;2.40;2.20;;;;;;;;;;4960843;29;20224;-85
2021/10/16 12:41:38;;;;;;;3.80;3.38;;;;;;;;;;4960789;29;20205;-85
2021/10/16 12:44:21;;;;;;;4.28;3.88;;;;;;;;;;4960198;28;20217;-84
2021/10/16 12:47:04;;;;;;;5.50;4.00;;;;;;;;;;4958167;29;20200;-84
2021/10/16 12:49:38;;;;;;;5.90;3.35;;;;;;;;;;4958713;29;20312;-85
2021/10/16 12:52:25;;;;;;;5.00;3.05;;;;;;;;;;4958934;28;20212;-84
2021/10/16 12:54:54;;;;;;;6.03;3.00;;;;;;;;;;4959368;29;20193;-84
2021/10/16 12:57:22;;;;;;;3.08;2.88;;;;;;;;;;4956951;29;20190;-84
2021/10/16 12:59:49;;;;;;;9.13;4.10;;;;;;;;;;4958957;29;20221;-85
2021/10/16 13:02:19;;;;;;;5.43;3.92;;;;;;;;;;4960319;29;20216;-85
2021/10/16 13:04:48;;;;;;;4.65;4.18;;;;;;;;;;4960622;29;20189;-85
2021/10/16 13:07:17;;;;;;;4.45;3.50;;;;;;;;;;4960490;29;20216;-84
2021/10/16 13:09:46;;;;;;;6.03;3.95;;;;;;;;;;4960497;29;20652;-84
2021/10/16 13:12:14;;;;;;;5.25;3.67;;;;;;;;;;4961335;29;20666;-85
2021/10/16 13:14:42;;;;;;;6.28;4.60;;;;;;;;;;4961100;29;20201;-85
2021/10/16 13:17:09;;;;;;;5.57;3.08;;;;;;;;;;4960428;29;20683;-84
2021/10/16 13:19:38;;;;;;;3.88;2.85;;;;;;;;;;4960602;29;20211;-84
2021/10/16 13:22:06;;;;;;;2.65;2.30;;;;;;;;;;4961160;29;20722;-84
2021/10/16 13:24:33;;;;;;;3.20;2.58;;;;;;;;;;4960699;29;20185;-85
2021/10/16 13:27:01;;;;;;;1.88;1.77;;;;;;;;;;4960666;29;20201;-86
2021/10/16 13:29:28;;;;;;;2.88;2.67;;;;;;;;;;4960651;29;20296;-85
2021/10/16 13:31:56;;;;;;;3.33;2.50;;;;;;;;;;4960039;29;20202;-84
2021/10/16 13:34:23;;;;;;;2.10;1.90;;;;;;;;;;4960564;28;20209;-85
2021/10/16 13:36:52;;;;;;;2.00;1.90;;;;;;;;;;4960606;29;20228;-85
2021/10/16 13:39:19;;;;;;;2.17;2.03;;;;;;;;;;4960572;29;20232;-85
2021/10/16 13:41:47;;;;;;;3.50;3.20;;;;;;;;;;4960199;29;20201;-85
2021/10/16 13:44:16;;;;;;;6.00;4.22;;;;;;;;;;4961206;29;20698;-85
2021/10/16 13:46:44;;;;;;;4.25;3.65;;;;;;;;;;4960692;29;20730;-85
2021/10/16 13:49:12;;;;;;;3.15;2.72;;;;;;;;;;4958127;29;20229;-85
2021/10/16 13:51:39;;;;;;;3.08;2.03;;;;;;;;;;4960905;28;20239;-85
2021/10/16 13:54:08;;;;;;;1.98;1.77;;;;;;;;;;4959854;28;20197;-85
2021/10/16 13:56:36;;;;;;;2.80;2.53;;;;;;;;;;4960877;29;20205;-85
2021/10/16 13:59:03;;;;;;;2.83;2.22;;;;;;;;;;4960623;29;20223;-85
2021/10/16 14:01:31;;;;;;;2.67;2.17;;;;;;;;;;4960592;29;20189;-85
2021/10/16 14:03:59;;;;;;;2.97;2.45;;;;;;;;;;4960350;29;20586;-86
2021/10/16 14:06:26;;;;;;;5.05;2.30;;;;;;;;;;4960283;29;20197;-85
2021/10/16 14:08:54;;;;;;;2.38;1.98;;;;;;;;;;4960072;29;20731;-86
2021/10/16 14:11:23;;;;;;;3.42;2.45;;;;;;;;;;4960845;29;20193;-85
2021/10/16 14:13:57;;;;;;;3.75;2.58;;;;;;;;;;4960444;29;20208;-85
2021/10/16 14:16:25;;;;;;;2.05;1.83;;;;;;;;;;4960210;29;20224;-85
2021/10/16 14:18:52;;;;;;;1.90;1.80;;;;;;;;;;4961199;29;20225;-85
2021/10/16 14:21:21;;;;;;;2.00;1.80;;;;;;;;;;4959842;29;20196;-85
2021/10/16 14:23:49;;;;;;;2.30;1.90;;;;;;;;;;4960824;29;20239;-84
2021/10/16 14:26:16;;;;;;;5.35;2.70;;;;;;;;;;4960213;29;20189;-85
2021/10/16 14:28:45;;;;;;;2.55;2.35;;;;;;;;;;4959933;29;20224;-85
2021/10/16 14:31:13;;;;;;;3.72;2.53;;;;;;;;;;4960369;28;20585;-85
2021/10/16 14:33:40;;;;;;;4.72;2.60;;;;;;;;;;4960259;29;20240;-85
2021/10/16 14:36:08;;;;;;;3.47;2.88;;;;;;;;;;4958889;28;20205;-86
2021/10/16 14:38:35;;;;;;;7.45;4.35;;;;;;;;;;4959759;29;20228;-86
2021/10/16 14:41:03;;;;;;;4.25;3.70;;;;;;;;;;4959561;29;20196;-85
2021/10/16 14:43:31;;;;;;;7.22;4.78;;;;;;;;;;4959449;29;20213;-84
2021/10/16 14:46:00;;;;;;;5.03;4.53;;;;;;;;;;4958219;28;20211;-84
2021/10/16 14:48:27;;;;;;;4.25;3.55;;;;;;;;;;4956557;28;20236;-84
2021/10/16 14:50:55;;;;;;;4.60;4.20;;;;;;;;;;4958517;29;20186;-84
2021/10/16 14:53:22;;;;;;;7.00;4.75;;;;;;;;;;4958746;28;20704;-84
2021/10/16 14:55:50;;;;;;;5.43;3.80;;;;;;;;;;4958514;29;20205;-83